sensor_id;sensor_type;location;lat;lon;timestamp;pressure;altitude;pressure_sealevel;temperature;humidity
21817;BME280;13247;47.504;7.382;2023-05-19T00:02:06;97602.34;;;12.85;100.00
21817;BME280;13247;47.504;7.382;2023-05-19T00:04:53;97599.72;;;12.85;100.00
21817;BME280;13247;47.504;7.382;2023-05-19T00:07:38;97598.78;;;12.86;100.00
21817;BME280;13247;47.504;7.382;2023-05-19T00:10:23;97593.38;;;12.91;100.00
21817;BME280;13247;47.504;7.382;2023-05-19T00:13:08;97592.31;;;12.96;100.00
21817;BME280;13247;47.504;7.382;2023-05-19T00:15:53;97591.06;;;13.06;100.00
21817;BME280;13247;47.504;7.382;2023-05-19T00:18:38;97583.91;;;13.10;100.00
21817;BME280;13247;47.504;7.382;2023-05-19T00:21:23;97588.44;;;13.06;100.00
21817;BME280;13247;47.504;7.382;2023-05-19T00:24:08;97582.84;;;13.15;100.00
21817;BME280;13247;47.504;7.382;2023-05-19T00:26:53;97582.88;;;13.14;100.00
21817;BME280;13247;47.504;7.382;2023-05-19T00:29:37;97580.28;;;12.89;100.00
21817;BME280;13247;47.504;7.382;2023-05-19T00:32:22;97588.69;;;12.99;100.00
21817;BME280;13247;47.504;7.382;2023-05-19T00:35:07;97590.41;;;13.00;100.00
21817;BME280;13247;47.504;7.382;2023-05-19T00:37:51;97591.34;;;12.74;100.00
21817;BME280;13247;47.504;7.382;2023-05-19T00:40:36;97584.38;;;12.73;100.00
21817;BME280;13247;47.504;7.382;2023-05-19T00:43:20;97582.09;;;12.87;100.00
21817;BME280;13247;47.504;7.382;2023-05-19T00:46:05;97574.94;;;12.91;100.00
21817;BME280;13247;47.504;7.382;2023-05-19T00:48:50;97584.09;;;12.81;100.00
21817;BME280;13247;47.504;7.382;2023-05-19T00:51:35;97580.47;;;12.60;100.00
21817;BME280;13247;47.504;7.382;2023-05-19T00:54:20;97585.66;;;12.61;100.00
21817;BME280;13247;47.504;7.382;2023-05-19T00:57:05;97581.91;;;12.69;100.00
21817;BME280;13247;47.504;7.382;2023-05-19T00:59:50;97571.72;;;12.83;100.00
21817;BME280;13247;47.504;7.382;2023-05-19T01:02:35;97567.72;;;12.73;100.00
21817;BME280;13247;47.504;7.382;2023-05-19T01:05:21;97556.00;;;12.81;100.00
21817;BME280;13247;47.504;7.382;2023-05-19T01:08:07;97562.63;;;12.68;100.00
21817;BME280;13247;47.504;7.382;2023-05-19T01:10:52;97566.19;;;12.42;100.00
21817;BME280;13247;47.504;7.382;2023-05-19T01:13:37;97557.09;;;12.51;100.00
21817;BME280;13247;47.504;7.382;2023-05-19T01:16:35;97557.31;;;12.45;100.00
21817;BME280;13247;47.504;7.382;2023-05-19T01:31:14;97557.97;;;12.51;100.00
21817;BME280;13247;47.504;7.382;2023-05-19T01:34:00;97556.16;;;12.29;100.00
21817;BME280;13247;47.504;7.382;2023-05-19T01:36:48;97552.78;;;12.50;100.00
21817;BME280;13247;47.504;7.382;2023-05-19T01:39:35;97546.13;;;12.63;100.00
21817;BME280;13247;47.504;7.382;2023-05-19T01:42:21;97550.09;;;12.51;100.00
21817;BME280;13247;47.504;7.382;2023-05-19T01:45:07;97545.22;;;12.64;100.00
21817;BME280;13247;47.504;7.382;2023-05-19T01:47:57;97547.78;;;12.67;100.00
21817;BME280;13247;47.504;7.382;2023-05-19T01:50:42;97540.78;;;12.89;100.00
21817;BME280;13247;47.504;7.382;2023-05-19T01:53:27;97548.22;;;12.78;100.00
21817;BME280;13247;47.504;7.382;2023-05-19T01:56:16;97550.75;;;12.81;100.00
21817;BME280;13247;47.504;7.382;2023-05-19T01:59:15;97542.50;;;12.67;100.00
21817;BME280;13247;47.504;7.382;2023-05-19T02:02:15;97548.28;;;12.77;100.00
21817;BME280;13247;47.504;7.382;2023-05-19T02:05:21;97548.22;;;12.78;100.00
21817;BME280;13247;47.504;7.382;2023-05-19T02:14:31;97549.38;;;12.71;100.00
21817;BME280;13247;47.504;7.382;2023-05-19T02:17:17;97560.31;;;12.59;100.00
21817;BME280;13247;47.504;7.382;2023-05-19T02:20:04;97552.81;;;12.73;100.00
21817;BME280;13247;47.504;7.382;2023-05-19T02:22:49;97564.53;;;12.65;100.00
21817;BME280;13247;47.504;7.382;2023-05-19T02:25:34;97554.69;;;12.45;100.00
21817;BME280;13247;47.504;7.382;2023-05-19T02:28:18;97552.34;;;12.37;100.00
21817;BME280;13247;47.504;7.382;2023-05-19T02:31:03;97566.66;;;12.29;100.00
21817;BME280;13247;47.504;7.382;2023-05-19T02:33:52;97558.28;;;12.18;100.00
21817;BME280;13247;47.504;7.382;2023-05-19T02:36:39;97555.50;;;12.22;100.00
21817;BME280;13247;47.504;7.382;2023-05-19T02:39:27;97555.50;;;12.22;100.00
21817;BME280;13247;47.504;7.382;2023-05-19T02:42:13;97558.34;;;12.41;100.00
21817;BME280;13247;47.504;7.382;2023-05-19T02:45:01;97557.25;;;12.46;100.00
21817;BME280;13247;47.504;7.382;2023-05-19T02:47:45;97556.34;;;12.23;100.00
21817;BME280;13247;47.504;7.382;2023-05-19T02:50:30;97552.97;;;12.69;100.00
21817;BME280;13247;47.504;7.382;2023-05-19T02:53:14;97554.50;;;12.74;100.00
21817;BME280;13247;47.504;7.382;2023-05-19T02:55:59;97551.53;;;12.60;100.00
21817;BME280;13247;47.504;7.382;2023-05-19T02:58:44;97551.06;;;12.72;100.00
21817;BME280;13247;47.504;7.382;2023-05-19T03:01:28;97550.19;;;12.24;100.00
21817;BME280;13247;47.504;7.382;2023-05-19T03:04:13;97548.66;;;12.17;100.00
21817;BME280;13247;47.504;7.382;2023-05-19T03:06:57;97550.09;;;12.27;100.00
21817;BME280;13247;47.504;7.382;2023-05-19T03:09:42;97546.25;;;12.11;100.00
21817;BME280;13247;47.504;7.382;2023-05-19T03:12:26;97545.22;;;12.15;100.00
21817;BME280;13247;47.504;7.382;2023-05-19T03:15:11;97540.91;;;12.14;100.00
21817;BME280;13247;47.504;7.382;2023-05-19T03:17:58;97541.00;;;12.11;100.00
21817;BME280;13247;47.504;7.382;2023-05-19T03:20:43;97544.78;;;12.02;100.00
21817;BME280;13247;47.504;7.382;2023-05-19T03:23:28;97541.50;;;11.96;100.00
21817;BME280;13247;47.504;7.382;2023-05-19T03:26:12;97547.31;;;12.05;100.00
21817;BME280;13247;47.504;7.382;2023-05-19T03:28:57;97544.44;;;12.13;100.00
21817;BME280;13247;47.504;7.382;2023-05-19T03:31:41;97544.63;;;12.31;100.00
21817;BME280;13247;47.504;7.382;2023-05-19T03:34:26;97541.97;;;12.33;100.00
21817;BME280;13247;47.504;7.382;2023-05-19T03:37:10;97546.00;;;12.18;100.00
21817;BME280;13247;47.504;7.382;2023-05-19T03:39:56;97552.00;;;12.22;100.00
21817;BME280;13247;47.504;7.382;2023-05-19T03:42:40;97555.50;;;12.22;100.00
21817;BME280;13247;47.504;7.382;2023-05-19T03:45:25;97549.88;;;12.07;100.00
21817;BME280;13247;47.504;7.382;2023-05-19T03:48:10;97548.56;;;11.94;100.00
21817;BME280;13247;47.504;7.382;2023-05-19T03:50:55;97554.03;;;12.14;100.00
21817;BME280;13247;47.504;7.382;2023-05-19T03:53:41;97563.16;;;12.04;100.00
21817;BME280;13247;47.504;7.382;2023-05-19T03:56:27;97549.28;;;12.25;100.00
21817;BME280;13247;47.504;7.382;2023-05-19T03:59:11;97554.63;;;11.96;100.00
21817;BME280;13247;47.504;7.382;2023-05-19T04:01:56;97550.63;;;12.10;100.00
21817;BME280;13247;47.504;7.382;2023-05-19T04:04:41;97556.63;;;12.15;100.00
21817;BME280;13247;47.504;7.382;2023-05-19T04:07:26;97561.72;;;12.20;100.00
21817;BME280;13247;47.504;7.382;2023-05-19T04:10:11;97558.72;;;12.06;100.00
21817;BME280;13247;47.504;7.382;2023-05-19T04:12:56;97567.94;;;12.17;100.00
21817;BME280;13247;47.504;7.382;2023-05-19T04:15:40;97565.16;;;12.22;100.00
21817;BME280;13247;47.504;7.382;2023-05-19T04:18:25;97564.13;;;12.00;100.00
21817;BME280;13247;47.504;7.382;2023-05-19T04:21:10;97571.47;;;11.90;100.00
21817;BME280;13247;47.504;7.382;2023-05-19T04:23:54;97568.09;;;12.13;100.00
21817;BME280;13247;47.504;7.382;2023-05-19T04:26:39;97565.44;;;12.14;100.00
21817;BME280;13247;47.504;7.382;2023-05-19T04:29:25;97567.28;;;12.11;100.00
21817;BME280;13247;47.504;7.382;2023-05-19T04:32:10;97573.97;;;11.95;100.00
21817;BME280;13247;47.504;7.382;2023-05-19T04:34:55;97557.69;;;11.83;100.00
21817;BME280;13247;47.504;7.382;2023-05-19T04:37:43;97567.19;;;11.88;100.00
21817;BME280;13247;47.504;7.382;2023-05-19T04:40:29;97568.84;;;11.90;100.00
21817;BME280;13247;47.504;7.382;2023-05-19T04:43:14;97573.97;;;11.95;100.00
21817;BME280;13247;47.504;7.382;2023-05-19T04:45:59;97571.13;;;12.27;100.00
21817;BME280;13247;47.504;7.382;2023-05-19T04:48:43;97572.75;;;12.29;100.00
21817;BME280;13247;47.504;7.382;2023-05-19T04:51:28;97577.34;;;12.49;100.00
21817;BME280;13247;47.504;7.382;2023-05-19T04:54:14;97581.22;;;12.13;100.00
21817;BME280;13247;47.504;7.382;2023-05-19T04:56:59;97586.59;;;12.10;100.00
21817;BME280;13247;47.504;7.382;2023-05-19T04:59:44;97591.66;;;12.16;100.00
21817;BME280;13247;47.504;7.382;2023-05-19T05:02:29;97591.19;;;12.03;100.00
21817;BME280;13247;47.504;7.382;2023-05-19T05:05:15;97591.41;;;11.97;100.00
21817;BME280;13247;47.504;7.382;2023-05-19T05:08:00;97590.50;;;12.24;100.00
21817;BME280;13247;47.504;7.382;2023-05-19T05:10:44;97585.16;;;12.00;100.00
21817;BME280;13247;47.504;7.382;2023-05-19T05:13:29;97586.44;;;11.88;100.00
21817;BME280;13247;47.504;7.382;2023-05-19T05:16:14;97586.47;;;12.13;100.00
21817;BME280;13247;47.504;7.382;2023-05-19T05:19:00;97590.56;;;12.21;100.00
21817;BME280;13247;47.504;7.382;2023-05-19T05:21:45;97584.28;;;12.27;100.00
21817;BME280;13247;47.504;7.382;2023-05-19T05:24:31;97587.72;;;12.29;100.00
21817;BME280;13247;47.504;7.382;2023-05-19T05:27:16;97587.09;;;12.21;100.00
21817;BME280;13247;47.504;7.382;2023-05-19T05:30:01;97584.06;;;12.33;100.00
21817;BME280;13247;47.504;7.382;2023-05-19T05:32:45;97587.59;;;12.32;100.00
21817;BME280;13247;47.504;7.382;2023-05-19T05:35:30;97589.78;;;12.44;100.00
21817;BME280;13247;47.504;7.382;2023-05-19T05:38:15;97598.50;;;12.46;100.00
21817;BME280;13247;47.504;7.382;2023-05-19T05:40:59;97596.44;;;12.29;100.00
21817;BME280;13247;47.504;7.382;2023-05-19T05:43:45;97595.97;;;12.18;100.00
21817;BME280;13247;47.504;7.382;2023-05-19T05:46:31;97593.34;;;12.17;100.00
21817;BME280;13247;47.504;7.382;2023-05-19T05:49:16;97595.91;;;12.44;100.00
21817;BME280;13247;47.504;7.382;2023-05-19T05:52:03;97597.84;;;12.64;100.00
21817;BME280;13247;47.504;7.382;2023-05-19T05:54:47;97593.72;;;12.57;100.00
21817;BME280;13247;47.504;7.382;2023-05-19T05:57:32;97602.69;;;12.51;100.00
21817;BME280;13247;47.504;7.382;2023-05-19T06:00:20;97597.22;;;12.57;100.00
21817;BME280;13247;47.504;7.382;2023-05-19T06:03:05;97589.03;;;12.40;100.00
21817;BME280;13247;47.504;7.382;2023-05-19T06:05:50;97595.31;;;12.61;100.00
21817;BME280;13247;47.504;7.382;2023-05-19T06:08:34;97585.06;;;12.29;100.00
21817;BME280;13247;47.504;7.382;2023-05-19T06:11:19;97592.97;;;12.29;100.00
21817;BME280;13247;47.504;7.382;2023-05-19T06:14:04;97585.22;;;12.24;100.00
21817;BME280;13247;47.504;7.382;2023-05-19T06:16:50;97587.66;;;12.04;100.00
21817;BME280;13247;47.504;7.382;2023-05-19T06:19:34;97597.31;;;12.04;100.00
21817;BME280;13247;47.504;7.382;2023-05-19T06:22:19;97595.03;;;11.93;100.00
21817;BME280;13247;47.504;7.382;2023-05-19T06:25:04;97589.47;;;12.02;100.00
21817;BME280;13247;47.504;7.382;2023-05-19T06:27:49;97585.06;;;12.29;100.00
21817;BME280;13247;47.504;7.382;2023-05-19T06:30:33;97592.47;;;12.42;100.00
21817;BME280;13247;47.504;7.382;2023-05-19T06:33:19;97587.88;;;12.23;100.00
21817;BME280;13247;47.504;7.382;2023-05-19T06:36:04;97593.38;;;11.91;100.00
21817;BME280;13247;47.504;7.382;2023-05-19T06:38:49;97593.78;;;12.05;100.00
21817;BME280;13247;47.504;7.382;2023-05-19T06:41:34;97586.34;;;12.17;100.00
21817;BME280;13247;47.504;7.382;2023-05-19T06:44:19;97586.78;;;12.30;100.00
21817;BME280;13247;47.504;7.382;2023-05-19T06:47:04;97585.38;;;11.94;100.00
21817;BME280;13247;47.504;7.382;2023-05-19T06:49:48;97586.72;;;12.31;100.00
21817;BME280;13247;47.504;7.382;2023-05-19T06:52:39;97589.53;;;12.27;100.00
21817;BME280;13247;47.504;7.382;2023-05-19T06:55:24;97593.91;;;12.00;100.00
21817;BME280;13247;47.504;7.382;2023-05-19T06:58:09;97593.00;;;12.27;100.00
21817;BME280;13247;47.504;7.382;2023-05-19T07:00:54;97584.41;;;12.96;100.00
21817;BME280;13247;47.504;7.382;2023-05-19T07:03:39;97591.03;;;12.83;100.00
21817;BME280;13247;47.504;7.382;2023-05-19T07:06:24;97588.34;;;12.60;100.00
21817;BME280;13247;47.504;7.382;2023-05-19T07:09:09;97590.22;;;12.81;100.00
21817;BME280;13247;47.504;7.382;2023-05-19T07:11:54;97589.28;;;12.82;100.00
21817;BME280;13247;47.504;7.382;2023-05-19T07:14:42;97582.09;;;12.87;100.00
21817;BME280;13247;47.504;7.382;2023-05-19T07:17:27;97587.72;;;13.01;100.00
21817;BME280;13247;47.504;7.382;2023-05-19T07:20:11;97591.34;;;12.74;100.00
21817;BME280;13247;47.504;7.382;2023-05-19T07:22:56;97581.88;;;12.93;100.00
21817;BME280;13247;47.504;7.382;2023-05-19T07:25:41;97578.03;;;12.79;100.00
21817;BME280;13247;47.504;7.382;2023-05-19T07:28:25;97575.94;;;12.88;100.00
21817;BME280;13247;47.504;7.382;2023-05-19T07:31:10;97573.66;;;13.02;100.00
21817;BME280;13247;47.504;7.382;2023-05-19T07:33:55;97570.50;;;13.16;100.00
21817;BME280;13247;47.504;7.382;2023-05-19T07:36:39;97562.03;;;13.31;100.00
21817;BME280;13247;47.504;7.382;2023-05-19T07:39:25;97561.16;;;13.30;100.00
21817;BME280;13247;47.504;7.382;2023-05-19T07:42:12;97566.56;;;13.72;100.00
21817;BME280;13247;47.504;7.382;2023-05-19T07:44:57;97558.22;;;13.83;100.00
21817;BME280;13247;47.504;7.382;2023-05-19T07:47:41;97550.25;;;14.04;100.00
21817;BME280;13247;47.504;7.382;2023-05-19T07:50:26;97549.28;;;14.07;100.00
21817;BME280;13247;47.504;7.382;2023-05-19T07:53:10;97551.09;;;14.06;100.00
21817;BME280;13247;47.504;7.382;2023-05-19T07:55:55;97552.50;;;13.93;100.00
21817;BME280;13247;47.504;7.382;2023-05-19T07:58:40;97544.31;;;14.41;100.00
21817;BME280;13247;47.504;7.382;2023-05-19T08:01:25;97540.25;;;14.54;100.00
21817;BME280;13247;47.504;7.382;2023-05-19T08:04:13;97540.97;;;13.96;100.00
21817;BME280;13247;47.504;7.382;2023-05-19T08:06:58;97538.19;;;13.99;100.00
21817;BME280;13247;47.504;7.382;2023-05-19T08:09:43;97534.53;;;14.23;100.00
21817;BME280;13247;47.504;7.382;2023-05-19T08:12:28;97535.75;;;14.36;100.00
21817;BME280;13247;47.504;7.382;2023-05-19T08:15:12;97535.13;;;14.70;100.00
21817;BME280;13247;47.504;7.382;2023-05-19T08:17:57;97523.88;;;14.85;100.00
21817;BME280;13247;47.504;7.382;2023-05-19T08:20:42;97519.19;;;14.91;100.00
21817;BME280;13247;47.504;7.382;2023-05-19T08:23:26;97512.50;;;15.03;100.00
21817;BME280;13247;47.504;7.382;2023-05-19T08:26:11;97511.06;;;15.15;100.00
21817;BME280;13247;47.504;7.382;2023-05-19T08:28:55;97509.22;;;15.35;100.00
21817;BME280;13247;47.504;7.382;2023-05-19T08:31:40;97515.34;;;15.36;100.00
21817;BME280;13247;47.504;7.382;2023-05-19T08:34:25;97506.91;;;15.28;100.00
21817;BME280;13247;47.504;7.382;2023-05-19T08:37:09;97510.19;;;15.70;100.00
21817;BME280;13247;47.504;7.382;2023-05-19T08:39:55;97507.28;;;15.57;100.00
21817;BME280;13247;47.504;7.382;2023-05-19T08:42:40;97508.47;;;15.32;100.00
21817;BME280;13247;47.504;7.382;2023-05-19T08:45:26;97503.41;;;15.09;100.00
21817;BME280;13247;47.504;7.382;2023-05-19T08:48:11;97506.50;;;15.37;100.00
21817;BME280;13247;47.504;7.382;2023-05-19T08:51:09;97496.22;;;15.49;100.00
21817;BME280;13247;47.504;7.382;2023-05-19T08:54:00;97499.13;;;15.62;98.83
21817;BME280;13247;47.504;7.382;2023-05-19T08:56:48;97502.63;;;15.25;98.71
21817;BME280;13247;47.504;7.382;2023-05-19T08:59:33;97503.22;;;15.13;100.00
21817;BME280;13247;47.504;7.382;2023-05-19T09:02:19;97505.06;;;15.30;100.00
21817;BME280;13247;47.504;7.382;2023-05-19T09:05:06;97502.63;;;15.25;99.91
21817;BME280;13247;47.504;7.382;2023-05-19T09:07:51;97510.22;;;15.14;95.49
21817;BME280;13247;47.504;7.382;2023-05-19T09:10:35;97499.44;;;15.37;97.19
21817;BME280;13247;47.504;7.382;2023-05-19T09:13:20;97505.69;;;15.89;97.25
21817;BME280;13247;47.504;7.382;2023-05-19T09:16:04;97499.84;;;15.83;98.09
21817;BME280;13247;47.504;7.382;2023-05-19T09:18:54;97503.06;;;15.53;98.81
21817;BME280;13247;47.504;7.382;2023-05-19T09:21:42;97494.69;;;16.15;100.00
21817;BME280;13247;47.504;7.382;2023-05-19T09:24:28;97489.75;;;15.91;100.00
21817;BME280;13247;47.504;7.382;2023-05-19T09:27:21;97493.84;;;15.62;100.00
21817;BME280;13247;47.504;7.382;2023-05-19T09:30:07;97486.63;;;15.83;100.00
21817;BME280;13247;47.504;7.382;2023-05-19T09:32:52;97485.75;;;15.65;100.00
21817;BME280;13247;47.504;7.382;2023-05-19T09:35:36;97491.31;;;15.59;100.00
21817;BME280;13247;47.504;7.382;2023-05-19T09:38:24;97486.44;;;15.51;100.00
21817;BME280;13247;47.504;7.382;2023-05-19T09:41:10;97485.47;;;15.34;100.00
21817;BME280;13247;47.504;7.382;2023-05-19T09:43:57;97487.00;;;15.58;96.48
21817;BME280;13247;47.504;7.382;2023-05-19T09:46:50;97489.22;;;15.48;100.00
21817;BME280;13247;47.504;7.382;2023-05-19T09:49:34;97492.22;;;15.77;98.24
21817;BME280;13247;47.504;7.382;2023-05-19T09:52:20;97490.88;;;15.68;100.00
21817;BME280;13247;47.504;7.382;2023-05-19T09:55:09;97490.25;;;15.63;99.85
21817;BME280;13247;47.504;7.382;2023-05-19T09:57:57;97477.59;;;15.87;99.17
21817;BME280;13247;47.504;7.382;2023-05-19T10:00:44;97473.72;;;16.28;93.25
21817;BME280;13247;47.504;7.382;2023-05-19T10:03:30;97478.25;;;16.09;95.34
21817;BME280;13247;47.504;7.382;2023-05-19T10:06:19;97487.03;;;15.75;91.49
21817;BME280;13247;47.504;7.382;2023-05-19T10:09:05;97477.47;;;16.24;85.62
21817;BME280;13247;47.504;7.382;2023-05-19T10:11:58;97476.69;;;16.22;91.45
21817;BME280;13247;47.504;7.382;2023-05-19T10:14:43;97483.78;;;16.21;90.11
21817;BME280;13247;47.504;7.382;2023-05-19T10:17:28;97487.78;;;16.63;89.75
21817;BME280;13247;47.504;7.382;2023-05-19T10:20:15;97472.84;;;16.44;91.44
21817;BME280;13247;47.504;7.382;2023-05-19T10:23:00;97462.66;;;16.20;89.91
21817;BME280;13247;47.504;7.382;2023-05-19T10:25:47;97461.38;;;16.94;88.69
21817;BME280;13247;47.504;7.382;2023-05-19T10:28:38;97461.75;;;17.19;81.33
21817;BME280;13247;47.504;7.382;2023-05-19T10:31:24;97464.72;;;17.28;84.97
21817;BME280;13247;47.504;7.382;2023-05-19T10:34:35;97473.63;;;16.46;86.11
21817;BME280;13247;47.504;7.382;2023-05-19T10:40:32;97463.09;;;17.26;88.12
21817;BME280;13247;47.504;7.382;2023-05-19T10:46:42;97464.56;;;16.68;89.48
21817;BME280;13247;47.504;7.382;2023-05-19T10:49:27;97475.66;;;16.59;91.72
21817;BME280;13247;47.504;7.382;2023-05-19T10:52:22;97472.78;;;16.12;93.16
21817;BME280;13247;47.504;7.382;2023-05-19T10:55:12;97473.19;;;16.21;93.58
21817;BME280;13247;47.504;7.382;2023-05-19T10:58:01;97464.53;;;16.85;91.23
21817;BME280;13247;47.504;7.382;2023-05-19T11:00:45;97465.44;;;16.84;90.56
21817;BME280;13247;47.504;7.382;2023-05-19T11:06:34;97470.06;;;16.96;81.58
21817;BME280;13247;47.504;7.382;2023-05-19T11:09:19;97465.16;;;17.21;82.70
21817;BME280;13247;47.504;7.382;2023-05-19T11:12:07;97461.91;;;17.16;81.29
21817;BME280;13247;47.504;7.382;2023-05-19T11:14:54;97468.72;;;17.04;88.20
21817;BME280;13247;47.504;7.382;2023-05-19T11:17:39;97455.59;;;17.18;88.14
21817;BME280;13247;47.504;7.382;2023-05-19T11:20:27;97464.97;;;17.24;84.01
21817;BME280;13247;47.504;7.382;2023-05-19T11:23:16;97462.84;;;17.46;82.33
21817;BME280;13247;47.504;7.382;2023-05-19T11:26:06;97461.81;;;17.17;82.84
21817;BME280;13247;47.504;7.382;2023-05-19T11:28:52;97462.41;;;17.38;82.85
21817;BME280;13247;47.504;7.382;2023-05-19T11:31:37;97465.31;;;17.02;81.26
21817;BME280;13247;47.504;7.382;2023-05-19T11:34:22;97454.28;;;17.25;84.11
21817;BME280;13247;47.504;7.382;2023-05-19T11:37:09;97464.66;;;17.14;85.23
21817;BME280;13247;47.504;7.382;2023-05-19T11:39:54;97463.19;;;17.09;81.34
21817;BME280;13247;47.504;7.382;2023-05-19T11:42:39;97460.19;;;17.15;85.26
21817;BME280;13247;47.504;7.382;2023-05-19T11:45:28;97446.72;;;17.51;83.96
21817;BME280;13247;47.504;7.382;2023-05-19T11:48:14;97453.00;;;17.48;86.02
21817;BME280;13247;47.504;7.382;2023-05-19T11:51:00;97450.53;;;16.83;85.41
21817;BME280;13247;47.504;7.382;2023-05-19T11:53:45;97448.69;;;16.68;86.57
21817;BME280;13247;47.504;7.382;2023-05-19T11:56:33;97452.78;;;16.73;87.62
21817;BME280;13247;47.504;7.382;2023-05-19T11:59:32;97451.25;;;16.69;88.46
21817;BME280;13247;47.504;7.382;2023-05-19T12:02:22;97448.56;;;17.33;83.04
21817;BME280;13247;47.504;7.382;2023-05-19T12:05:21;97444.28;;;17.62;84.82
21817;BME280;13247;47.504;7.382;2023-05-19T12:08:06;97441.50;;;17.79;78.84
21817;BME280;13247;47.504;7.382;2023-05-19T12:10:51;97445.28;;;17.75;82.90
21817;BME280;13247;47.504;7.382;2023-05-19T12:13:36;97442.59;;;17.61;84.37
21817;BME280;13247;47.504;7.382;2023-05-19T12:16:21;97441.66;;;16.99;82.82
21817;BME280;13247;47.504;7.382;2023-05-19T12:19:06;97445.31;;;17.44;82.64
21817;BME280;13247;47.504;7.382;2023-05-19T12:21:52;97445.34;;;17.89;83.62
21817;BME280;13247;47.504;7.382;2023-05-19T12:24:37;97437.59;;;17.70;83.69
21817;BME280;13247;47.504;7.382;2023-05-19T12:27:24;97438.66;;;17.52;83.16
21817;BME280;13247;47.504;7.382;2023-05-19T12:30:12;97440.88;;;16.97;87.98
21817;BME280;13247;47.504;7.382;2023-05-19T12:32:57;97432.66;;;17.17;85.26
21817;BME280;13247;47.504;7.382;2023-05-19T12:35:41;97443.28;;;17.02;87.30
21817;BME280;13247;47.504;7.382;2023-05-19T12:38:26;97440.34;;;16.91;88.80
21817;BME280;13247;47.504;7.382;2023-05-19T12:41:11;97436.50;;;16.96;86.59
21817;BME280;13247;47.504;7.382;2023-05-19T12:43:56;97430.25;;;16.82;92.03
21817;BME280;13247;47.504;7.382;2023-05-19T12:46:43;97431.13;;;16.98;89.93
21817;BME280;13247;47.504;7.382;2023-05-19T12:49:27;97421.03;;;17.04;87.55
21817;BME280;13247;47.504;7.382;2023-05-19T12:52:13;97431.63;;;16.89;88.15
21817;BME280;13247;47.504;7.382;2023-05-19T12:55:06;97427.38;;;17.02;88.33
21817;BME280;13247;47.504;7.382;2023-05-19T12:57:52;97421.91;;;17.05;87.60
21817;BME280;13247;47.504;7.382;2023-05-19T13:00:44;97423.75;;;17.34;86.00
21817;BME280;13247;47.504;7.382;2023-05-19T13:03:30;97420.88;;;17.07;87.59
21817;BME280;13247;47.504;7.382;2023-05-19T13:06:14;97417.50;;;16.73;89.31
21817;BME280;13247;47.504;7.382;2023-05-19T13:08:59;97416.59;;;16.89;88.59
21817;BME280;13247;47.504;7.382;2023-05-19T13:11:44;97415.50;;;16.93;88.92
21817;BME280;13247;47.504;7.382;2023-05-19T13:14:32;97421.13;;;16.87;90.88
21817;BME280;13247;47.504;7.382;2023-05-19T13:17:16;97417.97;;;16.81;91.44
21817;BME280;13247;47.504;7.382;2023-05-19T13:20:04;97418.50;;;16.55;93.93
21817;BME280;13247;47.504;7.382;2023-05-19T13:22:50;97413.22;;;16.55;94.84
21817;BME280;13247;47.504;7.382;2023-05-19T13:25:35;97413.94;;;16.74;91.58
21817;BME280;13247;47.504;7.382;2023-05-19T13:28:20;97408.53;;;16.75;92.13
21817;BME280;13247;47.504;7.382;2023-05-19T13:31:04;97410.22;;;16.61;99.12
21817;BME280;13247;47.504;7.382;2023-05-19T13:33:49;97421.53;;;16.64;100.00
21817;BME280;13247;47.504;7.382;2023-05-19T13:36:34;97408.69;;;16.57;92.10
21817;BME280;13247;47.504;7.382;2023-05-19T13:39:19;97416.09;;;16.83;94.61
21817;BME280;13247;47.504;7.382;2023-05-19T13:42:04;97418.38;;;16.73;96.83
21817;BME280;13247;47.504;7.382;2023-05-19T13:44:52;97417.00;;;16.66;94.23
21817;BME280;13247;47.504;7.382;2023-05-19T13:47:38;97409.66;;;16.71;91.16
21817;BME280;13247;47.504;7.382;2023-05-19T13:50:23;97418.91;;;17.11;90.23
21817;BME280;13247;47.504;7.382;2023-05-19T13:53:07;97417.28;;;17.08;93.27
21817;BME280;13247;47.504;7.382;2023-05-19T13:55:53;97416.00;;;16.84;94.24
21817;BME280;13247;47.504;7.382;2023-05-19T13:58:39;97417.69;;;17.01;93.14
21817;BME280;13247;47.504;7.382;2023-05-19T14:01:24;97415.41;;;16.95;94.66
21817;BME280;13247;47.504;7.382;2023-05-19T14:04:09;97417.44;;;16.74;93.34
21817;BME280;13247;47.504;7.382;2023-05-19T14:06:53;97413.88;;;16.91;93.03
21817;BME280;13247;47.504;7.382;2023-05-19T14:09:39;97411.72;;;16.82;90.67
21817;BME280;13247;47.504;7.382;2023-05-19T14:12:24;97410.69;;;16.84;91.59
21817;BME280;13247;47.504;7.382;2023-05-19T14:15:09;97407.38;;;16.81;93.82
21817;BME280;13247;47.504;7.382;2023-05-19T14:17:54;97401.38;;;16.93;95.64
21817;BME280;13247;47.504;7.382;2023-05-19T14:20:40;97402.06;;;16.81;90.76
21817;BME280;13247;47.504;7.382;2023-05-19T14:23:25;97400.69;;;16.74;93.64
21817;BME280;13247;47.504;7.382;2023-05-19T14:26:11;97403.84;;;16.80;89.14
21817;BME280;13247;47.504;7.382;2023-05-19T14:28:55;97405.31;;;16.86;91.16
21817;BME280;13247;47.504;7.382;2023-05-19T14:31:40;97409.41;;;16.76;93.10
21817;BME280;13247;47.504;7.382;2023-05-19T14:34:25;97407.19;;;16.84;92.53
21817;BME280;13247;47.504;7.382;2023-05-19T14:37:12;97403.44;;;16.72;90.92
21817;BME280;13247;47.504;7.382;2023-05-19T14:39:58;97404.50;;;16.53;94.07
21817;BME280;13247;47.504;7.382;2023-05-19T14:42:43;97402.31;;;16.43;92.50
21817;BME280;13247;47.504;7.382;2023-05-19T14:45:27;97399.09;;;16.54;94.05
21817;BME280;13247;47.504;7.382;2023-05-19T14:48:12;97399.19;;;16.53;93.81
21817;BME280;13247;47.504;7.382;2023-05-19T14:50:57;97404.59;;;16.51;95.33
21817;BME280;13247;47.504;7.382;2023-05-19T14:53:41;97400.94;;;16.54;94.11
21817;BME280;13247;47.504;7.382;2023-05-19T14:56:26;97405.19;;;16.39;95.42
21817;BME280;13247;47.504;7.382;2023-05-19T14:59:11;97396.94;;;16.45;95.83